sensor_id;sensor_type;location;lat;lon;timestamp;pressure;altitude;pressure_sealevel;temperature;humidity
55466;BME280;41329;41.594;23.810;2023-02-02T00:01:40;95407.53;;;2.32;57.28
55466;BME280;41329;41.594;23.810;2023-02-02T00:04:05;95386.13;;;2.09;57.26
55466;BME280;41329;41.594;23.810;2023-02-02T00:06:31;95406.53;;;2.20;57.52
55466;BME280;41329;41.594;23.810;2023-02-02T00:09:00;95385.94;;;2.05;58.19
55466;BME280;41329;41.594;23.810;2023-02-02T00:11:26;95382.06;;;1.98;58.75
55466;BME280;41329;41.594;23.810;2023-02-02T00:13:52;95400.41;;;2.14;58.59
55466;BME280;41329;41.594;23.810;2023-02-02T00:18:53;95334.22;;;1.83;58.44
55466;BME280;41329;41.594;23.810;2023-02-02T00:21:20;95382.22;;;2.01;58.90
55466;BME280;41329;41.594;23.810;2023-02-02T00:23:45;95381.09;;;1.94;58.95
55466;BME280;41329;41.594;23.810;2023-02-02T00:26:10;95381.56;;;1.87;58.61
55466;BME280;41329;41.594;23.810;2023-02-02T00:28:36;95360.75;;;1.61;59.22
55466;BME280;41329;41.594;23.810;2023-02-02T00:31:01;95380.88;;;1.73;59.20
55466;BME280;41329;41.594;23.810;2023-02-02T00:33:27;95378.16;;;1.82;58.57
55466;BME280;41329;41.594;23.810;2023-02-02T00:35:52;95389.88;;;1.82;58.50
55466;BME280;41329;41.594;23.810;2023-02-02T00:38:18;95392.75;;;1.77;58.69
55466;BME280;41329;41.594;23.810;2023-02-02T00:40:44;95384.59;;;1.77;58.71
55466;BME280;41329;41.594;23.810;2023-02-02T00:43:10;95366.88;;;1.66;58.85
55466;BME280;41329;41.594;23.810;2023-02-02T00:45:38;95370.75;;;1.74;58.98
55466;BME280;41329;41.594;23.810;2023-02-02T00:48:04;95358.38;;;1.68;59.12
55466;BME280;41329;41.594;23.810;2023-02-02T00:50:30;95381.72;;;1.82;58.89
55466;BME280;41329;41.594;23.810;2023-02-02T00:52:55;95365.81;;;1.76;58.95
55466;BME280;41329;41.594;23.810;2023-02-02T00:55:23;95363.53;;;1.78;58.99
55466;BME280;41329;41.594;23.810;2023-02-02T00:57:49;95380.09;;;1.81;58.90
55466;BME280;41329;41.594;23.810;2023-02-02T01:00:17;95389.72;;;1.79;58.79
55466;BME280;41329;41.594;23.810;2023-02-02T01:02:43;95404.91;;;1.71;58.64
55466;BME280;41329;41.594;23.810;2023-02-02T01:05:10;95403.47;;;1.65;58.39
55466;BME280;41329;41.594;23.810;2023-02-02T01:07:37;95401.22;;;1.67;58.33
55466;BME280;41329;41.594;23.810;2023-02-02T01:10:03;95405.56;;;1.68;58.01
55466;BME280;41329;41.594;23.810;2023-02-02T01:12:29;95393.00;;;1.59;58.39
55466;BME280;41329;41.594;23.810;2023-02-02T01:14:54;95400.72;;;1.65;58.53
55466;BME280;41329;41.594;23.810;2023-02-02T01:17:20;95366.13;;;1.44;59.09
55466;BME280;41329;41.594;23.810;2023-02-02T01:19:45;95396.03;;;1.57;59.18
55466;BME280;41329;41.594;23.810;2023-02-02T01:22:11;95377.09;;;1.52;58.78
55466;BME280;41329;41.594;23.810;2023-02-02T01:24:36;95407.63;;;1.63;58.83
55466;BME280;41329;41.594;23.810;2023-02-02T01:27:02;95398.63;;;1.62;59.13
55466;BME280;41329;41.594;23.810;2023-02-02T01:29:27;95394.28;;;1.61;59.38
55466;BME280;41329;41.594;23.810;2023-02-02T01:31:53;95400.22;;;1.63;59.62
55466;BME280;41329;41.594;23.810;2023-02-02T01:34:18;95391.63;;;1.39;58.75
55466;BME280;41329;41.594;23.810;2023-02-02T01:36:43;95342.63;;;0.95;58.81
55466;BME280;41329;41.594;23.810;2023-02-02T01:39:09;95387.25;;;1.30;59.39
55466;BME280;41329;41.594;23.810;2023-02-02T01:41:34;95384.66;;;1.25;59.79
55466;BME280;41329;41.594;23.810;2023-02-02T01:44:02;95394.06;;;1.19;60.32
55466;BME280;41329;41.594;23.810;2023-02-02T01:46:33;95384.75;;;1.20;60.01
55466;BME280;41329;41.594;23.810;2023-02-02T01:49:06;95385.28;;;1.30;60.30
55466;BME280;41329;41.594;23.810;2023-02-02T01:51:46;95331.41;;;0.97;60.14
55466;BME280;41329;41.594;23.810;2023-02-02T01:54:19;95377.75;;;1.27;59.87
55466;BME280;41329;41.594;23.810;2023-02-02T01:56:51;95385.19;;;1.35;60.19
55466;BME280;41329;41.594;23.810;2023-02-02T01:59:18;95391.56;;;1.31;60.15
55466;BME280;41329;41.594;23.810;2023-02-02T02:01:45;95374.06;;;1.23;59.57
55466;BME280;41329;41.594;23.810;2023-02-02T02:04:12;95368.78;;;1.27;59.94
55466;BME280;41329;41.594;23.810;2023-02-02T02:06:37;95314.91;;;0.93;60.37
55466;BME280;41329;41.594;23.810;2023-02-02T02:09:05;95376.47;;;1.25;60.35
55466;BME280;41329;41.594;23.810;2023-02-02T02:11:33;95375.66;;;1.24;60.42
55466;BME280;41329;41.594;23.810;2023-02-02T02:14:02;95365.03;;;1.14;60.51
55466;BME280;41329;41.594;23.810;2023-02-02T02:16:51;95369.84;;;1.17;61.17
55466;BME280;41329;41.594;23.810;2023-02-02T02:28:56;95369.47;;;0.88;60.87
55466;BME280;41329;41.594;23.810;2023-02-02T02:34:35;95353.91;;;0.80;60.84
55466;BME280;41329;41.594;23.810;2023-02-02T02:37:08;95303.41;;;0.52;61.04
55466;BME280;41329;41.594;23.810;2023-02-02T02:39:50;95360.75;;;0.78;61.39
55466;BME280;41329;41.594;23.810;2023-02-02T02:42:21;95357.13;;;0.60;61.15
55466;BME280;41329;41.594;23.810;2023-02-02T02:44:48;95352.84;;;0.68;61.14
55466;BME280;41329;41.594;23.810;2023-02-02T02:47:16;95359.41;;;0.67;61.70
55466;BME280;41329;41.594;23.810;2023-02-02T02:49:44;95350.50;;;0.53;61.83
55466;BME280;41329;41.594;23.810;2023-02-02T02:52:10;95369.19;;;0.68;61.37
55466;BME280;41329;41.594;23.810;2023-02-02T03:10:59;95368.81;;;0.61;62.60
55466;BME280;41329;41.594;23.810;2023-02-02T03:13:30;95370.00;;;0.68;61.99
55466;BME280;41329;41.594;23.810;2023-02-02T03:15:56;95338.41;;;0.45;61.58
55466;BME280;41329;41.594;23.810;2023-02-02T03:18:25;95373.06;;;0.53;61.70
55466;BME280;41329;41.594;23.810;2023-02-02T03:20:52;95369.72;;;0.34;62.68
55466;BME280;41329;41.594;23.810;2023-02-02T03:23:17;95380.69;;;0.29;63.49
55466;BME280;41329;41.594;23.810;2023-02-02T03:25:43;95374.59;;;0.24;63.08
55466;BME280;41329;41.594;23.810;2023-02-02T03:28:09;95386.34;;;0.33;63.40
55466;BME280;41329;41.594;23.810;2023-02-02T03:30:35;95384.31;;;0.38;62.83
55466;BME280;41329;41.594;23.810;2023-02-02T03:33:01;95397.84;;;0.30;63.38
55466;BME280;41329;41.594;23.810;2023-02-02T03:35:27;95377.66;;;0.31;63.24
55466;BME280;41329;41.594;23.810;2023-02-02T03:37:53;95371.44;;;0.30;63.17
55466;BME280;41329;41.594;23.810;2023-02-02T03:40:18;95361.16;;;0.27;62.92
55466;BME280;41329;41.594;23.810;2023-02-02T03:42:44;95365.38;;;0.33;63.23
55466;BME280;41329;41.594;23.810;2023-02-02T03:45:09;95356.41;;;0.33;63.09
55466;BME280;41329;41.594;23.810;2023-02-02T03:47:35;95337.53;;;0.14;63.58
55466;BME280;41329;41.594;23.810;2023-02-02T03:50:01;95365.13;;;0.21;64.05
55466;BME280;41329;41.594;23.810;2023-02-02T03:52:26;95355.53;;;0.24;63.71
55466;BME280;41329;41.594;23.810;2023-02-02T03:54:52;95354.84;;;0.18;63.56
55466;BME280;41329;41.594;23.810;2023-02-02T03:57:17;95346.69;;;0.18;63.55
55466;BME280;41329;41.594;23.810;2023-02-02T03:59:43;95359.34;;;0.22;63.79
55466;BME280;41329;41.594;23.810;2023-02-02T04:02:08;95362.28;;;0.26;63.76
55466;BME280;41329;41.594;23.810;2023-02-02T04:04:34;95371.53;;;0.25;63.65
55466;BME280;41329;41.594;23.810;2023-02-02T04:07:00;95343.38;;;0.08;63.56
55466;BME280;41329;41.594;23.810;2023-02-02T04:09:26;95382.63;;;0.29;63.57
55466;BME280;41329;41.594;23.810;2023-02-02T04:11:52;95376.31;;;0.20;63.48
55466;BME280;41329;41.594;23.810;2023-02-02T04:14:17;95361.72;;;0.02;62.82
55466;BME280;41329;41.594;23.810;2023-02-02T04:16:43;95368.03;;;0.11;63.10
55466;BME280;41329;41.594;23.810;2023-02-02T04:19:08;95372.31;;;0.03;63.54
55466;BME280;41329;41.594;23.810;2023-02-02T04:21:33;95378.94;;;0.11;64.39
55466;BME280;41329;41.594;23.810;2023-02-02T04:23:59;95358.69;;;0.03;63.95
55466;BME280;41329;41.594;23.810;2023-02-02T04:26:25;95379.22;;;0.23;64.34
55466;BME280;41329;41.594;23.810;2023-02-02T04:28:51;95390.72;;;0.07;64.03
55466;BME280;41329;41.594;23.810;2023-02-02T04:31:17;95382.06;;;0.04;63.38
55466;BME280;41329;41.594;23.810;2023-02-02T04:33:42;95381.75;;;0.06;62.99
55466;BME280;41329;41.594;23.810;2023-02-02T04:36:08;95393.88;;;0.00;63.05
55466;BME280;41329;41.594;23.810;2023-02-02T04:38:34;95375.13;;;-0.15;63.11
55466;BME280;41329;41.594;23.810;2023-02-02T04:41:08;95396.00;;;-0.24;63.16
55466;BME280;41329;41.594;23.810;2023-02-02T04:43:35;95379.47;;;-0.28;62.93
55466;BME280;41329;41.594;23.810;2023-02-02T04:46:01;95398.41;;;-0.23;63.17
55466;BME280;41329;41.594;23.810;2023-02-02T04:48:27;95405.53;;;-0.40;63.92
55466;BME280;41329;41.594;23.810;2023-02-02T04:51:12;95393.97;;;-0.32;63.85
55466;BME280;41329;41.594;23.810;2023-02-02T04:53:39;95376.34;;;-0.48;64.06
55466;BME280;41329;41.594;23.810;2023-02-02T04:56:11;95383.69;;;-0.35;63.92
55466;BME280;41329;41.594;23.810;2023-02-02T04:58:37;95394.56;;;-0.35;63.40
55466;BME280;41329;41.594;23.810;2023-02-02T05:03:35;95374.53;;;-0.53;63.98
55466;BME280;41329;41.594;23.810;2023-02-02T05:06:04;95407.66;;;-0.51;64.53
55466;BME280;41329;41.594;23.810;2023-02-02T05:08:30;95391.66;;;-0.52;64.14
55466;BME280;41329;41.594;23.810;2023-02-02T05:10:55;95372.59;;;-0.66;64.18
55466;BME280;41329;41.594;23.810;2023-02-02T05:13:21;95396.06;;;-0.56;64.01
55466;BME280;41329;41.594;23.810;2023-02-02T05:15:47;95397.28;;;-0.62;64.08
55466;BME280;41329;41.594;23.810;2023-02-02T05:18:13;95391.78;;;-0.89;64.04
55466;BME280;41329;41.594;23.810;2023-02-02T05:20:38;95413.75;;;-0.86;64.70
55466;BME280;41329;41.594;23.810;2023-02-02T05:23:04;95418.25;;;-0.81;65.34
55466;BME280;41329;41.594;23.810;2023-02-02T05:25:32;95422.44;;;-0.70;65.95
55466;BME280;41329;41.594;23.810;2023-02-02T05:27:57;95434.84;;;-0.83;66.24
55466;BME280;41329;41.594;23.810;2023-02-02T05:30:23;95406.78;;;-0.92;65.23
55466;BME280;41329;41.594;23.810;2023-02-02T05:32:48;95406.91;;;-0.83;65.35
55466;BME280;41329;41.594;23.810;2023-02-02T05:35:14;95421.78;;;-0.81;65.65
55466;BME280;41329;41.594;23.810;2023-02-02T05:37:41;95422.38;;;-0.84;66.12
55466;BME280;41329;41.594;23.810;2023-02-02T05:40:07;95426.13;;;-0.80;66.03
55466;BME280;41329;41.594;23.810;2023-02-02T05:42:33;95383.94;;;-1.04;65.60
55466;BME280;41329;41.594;23.810;2023-02-02T05:44:58;95429.06;;;-0.63;65.58
55466;BME280;41329;41.594;23.810;2023-02-02T05:47:24;95435.22;;;-0.57;64.97
55466;BME280;41329;41.594;23.810;2023-02-02T05:49:49;95419.81;;;-0.62;65.04
55466;BME280;41329;41.594;23.810;2023-02-02T05:52:20;95439.34;;;-0.60;65.41
55466;BME280;41329;41.594;23.810;2023-02-02T05:54:47;95443.97;;;-0.60;65.37
55466;BME280;41329;41.594;23.810;2023-02-02T05:57:12;95449.78;;;-0.67;65.43
55466;BME280;41329;41.594;23.810;2023-02-02T05:59:38;95446.78;;;-0.65;65.42
55466;BME280;41329;41.594;23.810;2023-02-02T06:02:03;95430.47;;;-0.65;65.33
55466;BME280;41329;41.594;23.810;2023-02-02T06:04:29;95435.91;;;-0.65;65.37
55466;BME280;41329;41.594;23.810;2023-02-02T06:06:54;95433.19;;;-0.65;65.56
55466;BME280;41329;41.594;23.810;2023-02-02T06:09:20;95434.50;;;-0.63;66.03
55466;BME280;41329;41.594;23.810;2023-02-02T06:11:48;95450.63;;;-0.39;65.80
55466;BME280;41329;41.594;23.810;2023-02-02T06:14:14;95457.91;;;-0.35;66.02
55466;BME280;41329;41.594;23.810;2023-02-02T06:16:39;95450.34;;;-0.38;66.61
55466;BME280;41329;41.594;23.810;2023-02-02T06:19:05;95457.63;;;-0.33;66.44
55466;BME280;41329;41.594;23.810;2023-02-02T06:21:31;95461.63;;;-0.44;65.96
55466;BME280;41329;41.594;23.810;2023-02-02T06:23:57;95464.94;;;-0.34;66.45
55466;BME280;41329;41.594;23.810;2023-02-02T06:26:24;95471.69;;;-0.31;66.89
55466;BME280;41329;41.594;23.810;2023-02-02T06:28:51;95465.16;;;-0.30;66.91
55466;BME280;41329;41.594;23.810;2023-02-02T06:31:18;95477.63;;;-0.43;67.21
55466;BME280;41329;41.594;23.810;2023-02-02T06:33:51;95407.13;;;-0.66;67.01
55466;BME280;41329;41.594;23.810;2023-02-02T06:36:17;95453.69;;;-0.27;67.04
55466;BME280;41329;41.594;23.810;2023-02-02T06:38:43;95469.72;;;-0.12;67.09
55466;BME280;41329;41.594;23.810;2023-02-02T06:41:08;95462.47;;;-0.03;67.15
55466;BME280;41329;41.594;23.810;2023-02-02T06:43:34;95473.63;;;0.09;67.19
55466;BME280;41329;41.594;23.810;2023-02-02T06:45:59;95471.00;;;0.04;66.85
55466;BME280;41329;41.594;23.810;2023-02-02T06:48:26;95471.31;;;-0.11;67.25
55466;BME280;41329;41.594;23.810;2023-02-02T06:50:52;95474.13;;;0.11;67.66
55466;BME280;41329;41.594;23.810;2023-02-02T06:53:18;95483.72;;;0.08;67.14
55466;BME280;41329;41.594;23.810;2023-02-02T06:55:58;95485.31;;;0.23;67.26
55466;BME280;41329;41.594;23.810;2023-02-02T06:58:24;95469.09;;;0.18;67.45
55466;BME280;41329;41.594;23.810;2023-02-02T07:00:50;95470.41;;;0.21;67.67
55466;BME280;41329;41.594;23.810;2023-02-02T07:03:16;95461.84;;;0.27;67.58
55466;BME280;41329;41.594;23.810;2023-02-02T07:05:42;95495.56;;;0.40;67.54
55466;BME280;41329;41.594;23.810;2023-02-02T07:08:08;95465.44;;;0.36;67.76
55466;BME280;41329;41.594;23.810;2023-02-02T07:10:35;95484.47;;;0.63;68.22
55466;BME280;41329;41.594;23.810;2023-02-02T07:13:01;95484.56;;;0.58;67.92
55466;BME280;41329;41.594;23.810;2023-02-02T07:15:27;95491.88;;;0.71;68.06
55466;BME280;41329;41.594;23.810;2023-02-02T07:17:53;95488.69;;;0.69;67.82
55466;BME280;41329;41.594;23.810;2023-02-02T07:20:18;95475.94;;;0.78;68.25
55466;BME280;41329;41.594;23.810;2023-02-02T07:22:44;95474.41;;;0.86;68.37
55466;BME280;41329;41.594;23.810;2023-02-02T07:25:09;95488.59;;;0.96;68.32
55466;BME280;41329;41.594;23.810;2023-02-02T07:27:35;95474.50;;;0.94;67.53
55466;BME280;41329;41.594;23.810;2023-02-02T07:30:00;95499.72;;;1.22;68.12
55466;BME280;41329;41.594;23.810;2023-02-02T07:32:26;95508.06;;;1.25;67.75
55466;BME280;41329;41.594;23.810;2023-02-02T07:34:51;95491.78;;;1.34;67.40
55466;BME280;41329;41.594;23.810;2023-02-02T07:37:17;95511.53;;;1.61;67.23
55466;BME280;41329;41.594;23.810;2023-02-02T07:39:42;95514.00;;;1.71;67.10
55466;BME280;41329;41.594;23.810;2023-02-02T07:42:11;95502.34;;;1.79;66.96
55466;BME280;41329;41.594;23.810;2023-02-02T07:44:37;95461.84;;;1.64;66.79
55466;BME280;41329;41.594;23.810;2023-02-02T07:47:03;95509.56;;;2.06;66.50
55466;BME280;41329;41.594;23.810;2023-02-02T07:49:29;95498.03;;;2.09;66.72
55466;BME280;41329;41.594;23.810;2023-02-02T07:51:55;95503.25;;;2.27;66.10
55466;BME280;41329;41.594;23.810;2023-02-02T07:54:20;95496.34;;;2.30;65.56
55466;BME280;41329;41.594;23.810;2023-02-02T07:56:46;95499.53;;;2.32;64.43
55466;BME280;41329;41.594;23.810;2023-02-02T07:59:11;95472.69;;;2.17;65.00
55466;BME280;41329;41.594;23.810;2023-02-02T08:01:37;95501.03;;;2.38;65.74
55466;BME280;41329;41.594;23.810;2023-02-02T08:04:02;95465.38;;;2.43;65.82
55466;BME280;41329;41.594;23.810;2023-02-02T08:06:34;95500.97;;;2.77;65.00
55466;BME280;41329;41.594;23.810;2023-02-02T08:09:01;95483.78;;;2.85;63.86
55466;BME280;41329;41.594;23.810;2023-02-02T08:11:28;95484.09;;;2.83;63.99
55466;BME280;41329;41.594;23.810;2023-02-02T08:13:56;95484.13;;;3.00;64.42
55466;BME280;41329;41.594;23.810;2023-02-02T08:16:23;95473.81;;;2.80;63.94
55466;BME280;41329;41.594;23.810;2023-02-02T08:18:49;95482.00;;;2.97;63.85
55466;BME280;41329;41.594;23.810;2023-02-02T08:21:15;95482.97;;;3.01;63.22
55466;BME280;41329;41.594;23.810;2023-02-02T08:23:42;95474.31;;;2.99;63.66
55466;BME280;41329;41.594;23.810;2023-02-02T08:26:16;95489.59;;;3.09;62.55
55466;BME280;41329;41.594;23.810;2023-02-02T08:28:43;95482.34;;;2.96;62.86
55466;BME280;41329;41.594;23.810;2023-02-02T08:31:17;95494.72;;;3.02;62.93
55466;BME280;41329;41.594;23.810;2023-02-02T08:33:44;95498.28;;;3.19;62.73
55466;BME280;41329;41.594;23.810;2023-02-02T08:36:11;95481.88;;;3.28;63.05
55466;BME280;41329;41.594;23.810;2023-02-02T08:38:37;95488.47;;;3.35;61.80
55466;BME280;41329;41.594;23.810;2023-02-02T08:41:04;95485.91;;;3.39;62.13
55466;BME280;41329;41.594;23.810;2023-02-02T08:43:30;95467.06;;;3.46;63.56
55466;BME280;41329;41.594;23.810;2023-02-02T08:45:58;95480.53;;;3.76;63.40
55466;BME280;41329;41.594;23.810;2023-02-02T08:48:26;95476.00;;;3.80;62.40
55466;BME280;41329;41.594;23.810;2023-02-02T08:50:53;95471.59;;;4.05;63.22
55466;BME280;41329;41.594;23.810;2023-02-02T08:53:19;95475.06;;;4.31;61.15
55466;BME280;41329;41.594;23.810;2023-02-02T08:55:45;95421.44;;;4.21;60.99
55466;BME280;41329;41.594;23.810;2023-02-02T08:58:10;95470.16;;;4.74;61.65
55466;BME280;41329;41.594;23.810;2023-02-02T09:00:36;95459.81;;;5.00;60.85
55466;BME280;41329;41.594;23.810;2023-02-02T09:03:01;95461.44;;;5.21;60.01
55466;BME280;41329;41.594;23.810;2023-02-02T09:05:27;95455.22;;;5.33;57.31
55466;BME280;41329;41.594;23.810;2023-02-02T09:07:52;95445.56;;;5.47;57.18
55466;BME280;41329;41.594;23.810;2023-02-02T09:10:18;95440.75;;;5.44;55.85
55466;BME280;41329;41.594;23.810;2023-02-02T09:12:43;95442.88;;;5.59;57.10
55466;BME280;41329;41.594;23.810;2023-02-02T09:15:09;95422.88;;;5.71;55.67
55466;BME280;41329;41.594;23.810;2023-02-02T09:17:36;95438.34;;;5.75;54.15
55466;BME280;41329;41.594;23.810;2023-02-02T09:20:02;95436.88;;;5.78;55.27
55466;BME280;41329;41.594;23.810;2023-02-02T09:22:27;95425.31;;;5.72;55.20
55466;BME280;41329;41.594;23.810;2023-02-02T09:24:52;95421.97;;;5.67;55.97
55466;BME280;41329;41.594;23.810;2023-02-02T09:27:18;95412.09;;;5.86;56.84
55466;BME280;41329;41.594;23.810;2023-02-02T09:29:44;95412.00;;;5.95;56.96
55466;BME280;41329;41.594;23.810;2023-02-02T09:32:09;95420.16;;;6.27;56.73
55466;BME280;41329;41.594;23.810;2023-02-02T09:34:35;95389.03;;;6.47;56.71
55466;BME280;41329;41.594;23.810;2023-02-02T09:37:00;95397.56;;;6.82;56.99
55466;BME280;41329;41.594;23.810;2023-02-02T09:39:26;95396.25;;;7.16;55.84
55466;BME280;41329;41.594;23.810;2023-02-02T09:42:17;95390.91;;;7.35;52.79
55466;BME280;41329;41.594;23.810;2023-02-02T09:45:12;95387.63;;;7.57;52.15
55466;BME280;41329;41.594;23.810;2023-02-02T09:53:17;95373.34;;;7.82;50.12
55466;BME280;41329;41.594;23.810;2023-02-02T09:55:50;95364.91;;;7.75;51.01
55466;BME280;41329;41.594;23.810;2023-02-02T10:01:07;95364.16;;;7.63;51.31
55466;BME280;41329;41.594;23.810;2023-02-02T10:08:47;95344.81;;;7.59;52.53
55466;BME280;41329;41.594;23.810;2023-02-02T10:14:15;95337.41;;;8.22;52.73
55466;BME280;41329;41.594;23.810;2023-02-02T10:16:43;95315.53;;;8.29;52.44
55466;BME280;41329;41.594;23.810;2023-02-02T10:19:11;95311.94;;;8.59;51.44
55466;BME280;41329;41.594;23.810;2023-02-02T10:24:22;95291.94;;;8.81;49.13
55466;BME280;41329;41.594;23.810;2023-02-02T10:26:49;95300.56;;;8.99;48.71
55466;BME280;41329;41.594;23.810;2023-02-02T10:29:23;95300.53;;;9.14;49.21
55466;BME280;41329;41.594;23.810;2023-02-02T10:46:01;95283.72;;;10.06;47.57
55466;BME280;41329;41.594;23.810;2023-02-02T10:48:31;95271.41;;;10.03;45.56
55466;BME280;41329;41.594;23.810;2023-02-02T10:51:06;95271.25;;;10.15;45.23
55466;BME280;41329;41.594;23.810;2023-02-02T10:53:36;95277.31;;;10.24;43.11
55466;BME280;41329;41.594;23.810;2023-02-02T10:56:07;95258.50;;;10.33;42.83
55466;BME280;41329;41.594;23.810;2023-02-02T10:58:47;95261.63;;;10.58;43.57
55466;BME280;41329;41.594;23.810;2023-02-02T11:01:16;95265.63;;;10.86;41.60
55466;BME280;41329;41.594;23.810;2023-02-02T11:03:42;95267.03;;;11.06;42.18
55466;BME280;41329;41.594;23.810;2023-02-02T11:06:12;95254.47;;;11.12;39.41
55466;BME280;41329;41.594;23.810;2023-02-02T11:08:57;95249.41;;;11.18;38.01
55466;BME280;41329;41.594;23.810;2023-02-02T11:11:41;95245.63;;;11.33;40.56
55466;BME280;41329;41.594;23.810;2023-02-02T11:16:40;95236.47;;;11.62;39.49
55466;BME280;41329;41.594;23.810;2023-02-02T11:21:57;95232.06;;;11.97;38.62
55466;BME280;41329;41.594;23.810;2023-02-02T11:24:27;95227.50;;;12.22;36.65
55466;BME280;41329;41.594;23.810;2023-02-02T11:27:00;95231.56;;;12.32;35.30
55466;BME280;41329;41.594;23.810;2023-02-02T11:29:42;95217.31;;;12.33;36.87
55466;BME280;41329;41.594;23.810;2023-02-02T11:37:56;95211.31;;;12.28;33.69
55466;BME280;41329;41.594;23.810;2023-02-02T11:42:54;95187.31;;;11.95;35.43
55466;BME280;41329;41.594;23.810;2023-02-02T11:45:33;95202.97;;;12.24;36.84
55466;BME280;41329;41.594;23.810;2023-02-02T11:48:02;95174.06;;;12.32;35.71
55466;BME280;41329;41.594;23.810;2023-02-02T11:50:28;95189.09;;;12.24;33.89
55466;BME280;41329;41.594;23.810;2023-02-02T11:52:55;95195.34;;;12.11;35.66
55466;BME280;41329;41.594;23.810;2023-02-02T11:55:26;95187.38;;;12.06;35.39
55466;BME280;41329;41.594;23.810;2023-02-02T11:58:18;95186.25;;;12.14;36.00
55466;BME280;41329;41.594;23.810;2023-02-02T12:01:00;95176.06;;;12.32;35.07
55466;BME280;41329;41.594;23.810;2023-02-02T12:03:36;95176.47;;;12.34;33.37
55466;BME280;41329;41.594;23.810;2023-02-02T12:06:20;95171.59;;;12.13;34.61
55466;BME280;41329;41.594;23.810;2023-02-02T12:08:46;95137.06;;;12.07;34.91
55466;BME280;41329;41.594;23.810;2023-02-02T12:16:58;95108.41;;;12.51;34.59
55466;BME280;41329;41.594;23.810;2023-02-02T12:22:09;95165.66;;;12.87;33.74
55466;BME280;41329;41.594;23.810;2023-02-02T12:27:50;95163.06;;;13.29;34.40
55466;BME280;41329;41.594;23.810;2023-02-02T12:30:34;95150.75;;;13.26;34.28
55466;BME280;41329;41.594;23.810;2023-02-02T12:38:21;95100.72;;;13.12;32.91
55466;BME280;41329;41.594;23.810;2023-02-02T12:41:14;95143.63;;;13.22;34.02
55466;BME280;41329;41.594;23.810;2023-02-02T12:44:18;95141.63;;;13.15;33.08
55466;BME280;41329;41.594;23.810;2023-02-02T13:08:10;95134.84;;;11.73;33.85
55466;BME280;41329;41.594;23.810;2023-02-02T13:10:39;95142.78;;;11.78;35.14
55466;BME280;41329;41.594;23.810;2023-02-02T13:13:20;95146.31;;;11.75;34.79
55466;BME280;41329;41.594;23.810;2023-02-02T13:15:54;95141.06;;;11.63;33.84
55466;BME280;41329;41.594;23.810;2023-02-02T13:18:45;95149.22;;;11.49;34.39
55466;BME280;41329;41.594;23.810;2023-02-02T13:21:14;95139.81;;;11.57;34.86
55466;BME280;41329;41.594;23.810;2023-02-02T13:23:48;95109.69;;;11.52;35.25
55466;BME280;41329;41.594;23.810;2023-02-02T13:26:23;95126.06;;;11.64;33.76
55466;BME280;41329;41.594;23.810;2023-02-02T13:34:19;95133.25;;;11.72;33.84
55466;BME280;41329;41.594;23.810;2023-02-02T13:36:51;95111.09;;;11.75;32.57
55466;BME280;41329;41.594;23.810;2023-02-02T13:39:31;95117.13;;;11.88;32.54
55466;BME280;41329;41.594;23.810;2023-02-02T13:41:59;95126.63;;;11.87;33.50
55466;BME280;41329;41.594;23.810;2023-02-02T13:44:40;95098.91;;;11.87;33.42
55466;BME280;41329;41.594;23.810;2023-02-02T13:47:19;95096.22;;;12.01;33.18
55466;BME280;41329;41.594;23.810;2023-02-02T13:49:54;95110.94;;;12.12;33.45
55466;BME280;41329;41.594;23.810;2023-02-02T14:01:04;95095.31;;;12.51;32.67
55466;BME280;41329;41.594;23.810;2023-02-02T14:03:41;95110.84;;;12.66;33.39
55466;BME280;41329;41.594;23.810;2023-02-02T14:06:16;95102.91;;;12.68;32.09
55466;BME280;41329;41.594;23.810;2023-02-02T14:09:03;95107.91;;;12.34;33.32
55466;BME280;41329;41.594;23.810;2023-02-02T14:11:32;95102.91;;;12.65;33.61
55466;BME280;41329;41.594;23.810;2023-02-02T14:14:20;95095.00;;;12.70;32.67
55466;BME280;41329;41.594;23.810;2023-02-02T14:16:57;95075.16;;;12.61;31.71
55466;BME280;41329;41.594;23.810;2023-02-02T14:24:47;95099.88;;;13.01;32.30
55466;BME280;41329;41.594;23.810;2023-02-02T14:34:54;95081.69;;;14.09;30.50
55466;BME280;41329;41.594;23.810;2023-02-02T14:45:48;95027.59;;;14.34;28.91
55466;BME280;41329;41.594;23.810;2023-02-02T14:48:35;95078.41;;;14.66;29.62
55466;BME280;41329;41.594;23.810;2023-02-02T14:51:12;95081.28;;;14.10;29.71
55466;BME280;41329;41.594;23.810;2023-02-02T14:53:39;95078.94;;;13.42;31.04
55466;BME280;41329;41.594;23.810;2023-02-02T14:56:13;95078.94;;;13.77;30.64
55466;BME280;41329;41.594;23.810;2023-02-02T14:58:57;95082.53;;;13.64;30.97
55466;BME280;41329;41.594;23.810;2023-02-02T15:01:28;95088.09;;;13.85;30.76
55466;BME280;41329;41.594;23.810;2023-02-02T15:06:46;95037.94;;;12.83;31.38
55466;BME280;41329;41.594;23.810;2023-02-02T15:31:01;95093.53;;;12.15;33.40
55466;BME280;41329;41.594;23.810;2023-02-02T15:33:35;95086.72;;;12.02;33.36
55466;BME280;41329;41.594;23.810;2023-02-02T15:36:11;95084.22;;;11.86;33.36
55466;BME280;41329;41.594;23.810;2023-02-02T15:38:40;95098.72;;;11.62;33.96
55466;BME280;41329;41.594;23.810;2023-02-02T15:41:15;95097.78;;;11.51;34.39
55466;BME280;41329;41.594;23.810;2023-02-02T15:43:42;95085.41;;;11.35;34.82
55466;BME280;41329;41.594;23.810;2023-02-02T15:46:12;95096.28;;;11.14;35.61
55466;BME280;41329;41.594;23.810;2023-02-02T15:48:38;95101.13;;;10.87;35.54
55466;BME280;41329;41.594;23.810;2023-02-02T15:51:14;95112.22;;;10.91;35.06
55466;BME280;41329;41.594;23.810;2023-02-02T15:58:54;95127.69;;;10.59;36.32
55466;BME280;41329;41.594;23.810;2023-02-02T16:01:22;95126.28;;;10.42;36.82
55466;BME280;41329;41.594;23.810;2023-02-02T16:06:35;95139.59;;;10.33;37.00
55466;BME280;41329;41.594;23.810;2023-02-02T16:09:04;95125.09;;;10.14;37.13
55466;BME280;41329;41.594;23.810;2023-02-02T16:11:31;95142.59;;;10.21;37.95